Coeur D'Alene - Pappy Boyington Field
KCOE : now visible

Airfield :











YOU CAN JOIN US ON...

 
LOGIN :

Register | Disclaimer

   EN    FR    IT 

 









Legend :    VFR   Marginal VFR   IFR   Intensive IFR   Very Intensive IFR
Visi :
Ceiling :
>= 8 km
>= 3000ft
5 to 8 km
1000 to 3000 ft
1500m to 5 km
500 to 1000 ft
800 to 1500m
200 to 500 ft
< 800m
< 200 ft
Symbols :   Thunderstorms  Fog  Heavy snow  Heavy precipitations  Wind > 20 kt






- Airport Elevation : 2320 ft


KCOE - Coeur D'Alene - Pappy Boyington Field

CURRENT METAR :
  • 080356Z AUTO 03005KT 2SM BR OVC004 M01/M01 A2989 RMK AO2 SLP165 T10061011 FZRANO

EXPIRED METARs :
  • 080256Z AUTO 04005KT 2 1/2SM BR OVC004 M01/M01 A2993 RMK AO2 UPE50 SLP177 P0000 60000 T10061011 58020 FZRANO
  • 080218Z AUTO 03007KT 2 1/2SM UP BR OVC004 00/M01 A2994 RMK AO2 P0000 FZRANO
  • 080156Z AUTO 03005KT 1 1/4SM UP BR OVC004 00/M01 A2995 RMK AO2 UPB43 SLP183 P0000 T00001011 FZRANO
  • 080135Z AUTO 05004KT 1 3/4SM BR OVC004 00/M01 A2995 RMK AO2 FZRANO

TAF KCOE
Valid from the 08 at 02:00 until the 09 at 00:00 UTC


080146Z 0802/0824 05004KT 1 1/2SM BR VCSH OVC004
FM080600 25005KT 2SM -RA BR OVC006
FM081200 23010G22KT P6SM -SHRA OVC010
FM081800 23019G28KT P6SM VCSH BKN070
KZSE FIR / North America



MET'MAP, your aeronautical weather chart ! - Copyright ORBIFLY December 2007 - Disclaimer

ORBIFLY MET'MAP TEAM :

Programming & Development : Alexandra Zaïnal
Concept & original design : Baudouin d'Aumeries
Assistance for programming : Marc-Olivier Méhu
Technical & hardware support : Manuel Goepfert

Contact : metmap@orbifly.com




SOURCES & CREDITS :

   NOAA       Earth
Advisory